createdAt,value
2024-03-04T00:01:17.306Z,34.63
2024-03-04T00:03:19.250Z,29.60
2024-03-04T00:05:22.123Z,30.17
2024-03-04T00:07:26.921Z,28.10
2024-03-04T00:09:29.688Z,19.90
2024-03-04T00:11:32.473Z,26.20
2024-03-04T00:13:37.253Z,34.47
2024-03-04T00:15:40.116Z,24.90
2024-03-04T00:17:44.347Z,32.20
2024-03-04T00:19:46.169Z,33.40
2024-03-04T00:21:49.033Z,31.60
2024-03-04T00:23:52.215Z,28.13
2024-03-04T00:25:54.960Z,25.73
2024-03-04T00:27:58.076Z,48.03
2024-03-04T00:29:59.915Z,36.87
2024-03-04T00:32:02.665Z,33.67
2024-03-04T00:34:06.818Z,35.17
2024-03-04T00:36:09.887Z,31.80
2024-03-04T00:38:12.170Z,35.77
2024-03-04T00:40:15.164Z,25.17
2024-03-04T00:42:18.679Z,29.27
2024-03-04T00:44:22.046Z,34.53
2024-03-04T00:46:25.190Z,32.93
2024-03-04T00:48:28.182Z,33.27
2024-03-04T00:50:32.990Z,34.13
2024-03-04T00:52:38.484Z,33.30
2024-03-04T00:54:41.668Z,33.77
2024-03-04T00:56:45.015Z,33.10
2024-03-04T00:58:47.897Z,33.10
2024-03-04T01:00:50.705Z,36.83
2024-03-04T01:02:54.325Z,35.97
2024-03-04T01:04:57.138Z,30.67
2024-03-04T01:07:01.283Z,26.58
2024-03-04T01:09:05.100Z,24.83
2024-03-04T01:11:08.780Z,32.27
2024-03-04T01:13:11.625Z,27.73
2024-03-04T01:15:14.822Z,35.13
2024-03-04T01:17:18.211Z,29.60
2024-03-04T01:19:24.870Z,33.73
2024-03-04T01:21:27.686Z,26.53
2024-03-04T01:23:32.063Z,28.20
2024-03-04T01:25:34.013Z,29.93
2024-03-04T01:27:37.127Z,23.93
2024-03-04T01:29:40.622Z,26.17
2024-03-04T01:31:43.746Z,25.97
2024-03-04T01:33:48.056Z,29.80
2024-03-04T01:35:50.797Z,25.60
2024-03-04T01:37:53.546Z,29.83
2024-03-04T01:39:57.647Z,28.83
2024-03-04T01:42:00.394Z,33.90
2024-03-04T01:44:04.532Z,31.83
2024-03-04T01:46:07.574Z,35.07
2024-03-04T01:48:10.827Z,34.73
2024-03-04T01:50:13.779Z,40.93
2024-03-04T01:52:16.948Z,31.67
2024-03-04T01:54:19.771Z,40.50
2024-03-04T01:56:23.869Z,30.60
2024-03-04T01:58:26.658Z,33.83
2024-03-04T02:00:30.073Z,36.87
2024-03-04T02:02:32.825Z,28.53
2024-03-04T02:04:35.619Z,27.30
2024-03-04T02:06:38.757Z,23.93
2024-03-04T02:08:41.673Z,20.73
2024-03-04T02:10:43.736Z,28.10
2024-03-04T02:12:48.370Z,28.60
2024-03-04T02:14:50.181Z,27.07
2024-03-04T02:16:53.161Z,29.43
2024-03-04T02:18:56.238Z,26.37
2024-03-04T02:21:02.678Z,27.30
2024-03-04T02:23:07.358Z,31.27
2024-03-04T02:25:12.820Z,30.67
2024-03-04T02:27:15.623Z,36.27
2024-03-04T02:29:17.454Z,34.90
2024-03-04T02:31:20.298Z,28.30
2024-03-04T02:33:23.290Z,33.73
2024-03-04T02:35:28.351Z,34.73
2024-03-04T02:37:31.286Z,29.33
2024-03-04T02:39:34.513Z,29.17
2024-03-04T02:41:37.844Z,29.93
2024-03-04T02:43:40.735Z,29.50
2024-03-04T02:45:43.687Z,35.37
2024-03-04T02:47:46.532Z,30.47
2024-03-04T02:49:49.319Z,23.60
2024-03-04T02:51:52.111Z,27.50
2024-03-04T02:53:54.870Z,27.50
2024-03-04T02:55:58.948Z,31.23
2024-03-04T02:58:00.784Z,26.53
2024-03-04T03:00:04.180Z,29.47
2024-03-04T03:02:07.481Z,30.77
2024-03-04T03:04:10.298Z,31.00
2024-03-04T03:06:13.070Z,39.27
2024-03-04T03:08:14.865Z,35.60
2024-03-04T03:10:17.686Z,38.07
2024-03-04T03:12:21.820Z,32.30
2024-03-04T03:14:24.577Z,28.87
2024-03-04T03:16:27.372Z,30.80
2024-03-04T03:18:30.142Z,30.43
2024-03-04T03:20:32.900Z,28.17
2024-03-04T03:22:35.977Z,29.77
2024-03-04T03:24:38.774Z,31.60
2024-03-04T03:26:41.534Z,32.40
2024-03-04T03:28:45.758Z,32.13
2024-03-04T03:30:48.624Z,30.67
2024-03-04T03:32:51.373Z,33.20
2024-03-04T03:34:54.160Z,33.50
2024-03-04T03:36:56.945Z,26.53
2024-03-04T03:38:59.720Z,28.73
2024-03-04T03:41:02.635Z,29.27
2024-03-04T03:43:05.614Z,26.47
2024-03-04T03:45:09.929Z,27.23
2024-03-04T03:47:12.677Z,28.13
2024-03-04T03:49:16.427Z,31.90
2024-03-04T03:51:19.234Z,33.00
2024-03-04T03:53:24.185Z,33.83
2024-03-04T03:55:27.234Z,28.57
2024-03-04T03:57:37.797Z,24.60
2024-03-04T03:59:49.221Z,18.00
2024-03-04T04:01:54.316Z,19.93
2024-03-04T04:03:57.191Z,31.07
2024-03-04T04:06:00.504Z,23.50
2024-03-04T04:08:03.311Z,22.60
2024-03-04T04:10:06.836Z,27.23
2024-03-04T04:12:10.803Z,34.70
2024-03-04T04:14:13.562Z,22.17
2024-03-04T04:16:16.359Z,36.20
2024-03-04T04:18:20.565Z,33.17
2024-03-04T04:20:23.309Z,26.50
2024-03-04T04:22:28.094Z,27.10
2024-03-04T04:24:31.033Z,30.03
2024-03-04T04:26:34.991Z,36.57
2024-03-04T04:28:38.147Z,32.00
2024-03-04T04:30:41.566Z,35.90
2024-03-04T04:32:44.490Z,35.47
2024-03-04T04:34:48.645Z,29.77
2024-03-04T04:36:51.765Z,27.70
2024-03-04T04:38:54.496Z,38.63
2024-03-04T04:40:57.788Z,35.33
2024-03-04T04:43:00.624Z,31.03
2024-03-04T04:45:03.394Z,32.23
2024-03-04T04:47:06.362Z,18.63
2024-03-04T04:49:09.210Z,18.40
2024-03-04T04:51:13.278Z,24.50
2024-03-04T04:53:16.028Z,27.87
2024-03-04T04:55:19.407Z,33.57
2024-03-04T04:57:23.106Z,38.40
2024-03-04T04:59:25.860Z,28.07
2024-03-04T05:01:27.917Z,35.77
2024-03-04T05:03:47.061Z,30.43
2024-03-04T05:05:54.538Z,32.57
2024-03-04T05:07:58.733Z,37.43
2024-03-04T05:10:01.588Z,35.80
2024-03-04T05:12:03.673Z,36.97
2024-03-04T05:14:06.603Z,34.13
2024-03-04T05:16:09.818Z,31.67
2024-03-04T05:18:12.585Z,29.40
2024-03-04T05:20:17.018Z,29.30
2024-03-04T05:22:19.953Z,32.67
2024-03-04T05:24:24.057Z,39.20
2024-03-04T05:26:26.840Z,35.03
2024-03-04T05:28:29.673Z,38.20
2024-03-04T05:30:32.526Z,47.13
2024-03-04T05:32:35.301Z,62.07
2024-03-04T05:34:38.577Z,73.40
2024-03-04T05:36:44.944Z,55.57
2024-03-04T05:38:47.717Z,36.20
2024-03-04T05:40:51.967Z,33.93
2024-03-04T05:42:54.732Z,39.30
2024-03-04T05:44:56.508Z,45.53
2024-03-04T05:46:59.287Z,36.97
2024-03-04T05:49:02.145Z,72.93
2024-03-04T05:51:05.481Z,55.33
2024-03-04T05:53:08.227Z,56.70
2024-03-04T05:55:11.447Z,36.80
2024-03-04T05:57:15.954Z,33.03
2024-03-04T05:59:19.566Z,125.70
2024-03-04T06:01:22.417Z,173.97
2024-03-04T06:03:25.206Z,408.93
2024-03-04T06:05:28.211Z,175.63
2024-03-04T06:07:30.094Z,321.20
2024-03-04T06:09:32.872Z,158.17
2024-03-04T06:11:35.660Z,280.10
2024-03-04T06:13:39.821Z,233.57
2024-03-04T06:15:42.639Z,171.90
2024-03-04T06:17:45.408Z,359.57
2024-03-04T06:19:48.224Z,296.63
2024-03-04T06:22:01.224Z,268.20
2024-03-04T06:24:11.454Z,279.87
2024-03-04T06:26:13.509Z,214.53
2024-03-04T06:28:16.282Z,240.77
2024-03-04T06:30:20.466Z,165.17
2024-03-04T06:32:23.273Z,249.87
2024-03-04T06:34:27.424Z,226.93
2024-03-04T06:36:30.194Z,188.20
2024-03-04T06:38:32.981Z,372.97
2024-03-04T06:40:35.774Z,182.33
2024-03-04T06:42:38.539Z,342.33
2024-03-04T06:44:41.875Z,377.07
2024-03-04T06:46:46.121Z,388.70
2024-03-04T06:48:48.908Z,342.53
2024-03-04T06:50:50.709Z,263.83
2024-03-04T06:52:53.471Z,471.67
2024-03-04T06:54:56.219Z,267.70
2024-03-04T06:56:58.023Z,482.60
2024-03-04T06:59:00.798Z,275.73
2024-03-04T07:01:03.716Z,250.03
2024-03-04T07:03:07.939Z,252.67
2024-03-04T07:05:11.001Z,298.00
2024-03-04T07:07:13.790Z,267.97
2024-03-04T07:09:16.558Z,315.40
2024-03-04T07:11:19.977Z,319.23
2024-03-04T07:13:22.859Z,347.70
2024-03-04T07:15:25.649Z,155.47
2024-03-04T07:17:28.430Z,442.13
2024-03-04T07:19:31.710Z,339.93
2024-03-04T07:21:34.469Z,641.70
2024-03-04T07:23:38.535Z,157.17
2024-03-04T07:25:41.354Z,324.60
2024-03-04T07:27:44.325Z,255.70
2024-03-04T07:29:52.798Z,134.50
2024-03-04T07:32:01.776Z,354.40
2024-03-04T07:34:04.609Z,257.00
2024-03-04T07:36:10.269Z,231.50
2024-03-04T07:38:13.862Z,280.67
2024-03-04T07:40:16.841Z,243.90
2024-03-04T07:42:21.609Z,339.87
2024-03-04T07:44:24.400Z,255.80
2024-03-04T07:46:27.226Z,240.93
2024-03-04T07:48:30.000Z,193.30
2024-03-04T07:50:32.742Z,219.30
2024-03-04T07:52:36.872Z,254.90
2024-03-04T07:54:39.693Z,296.17
2024-03-04T07:56:42.449Z,140.83
2024-03-04T07:58:45.314Z,344.30
2024-03-04T08:00:47.147Z,164.43
2024-03-04T08:02:50.026Z,91.73
2024-03-04T08:04:51.896Z,141.70
2024-03-04T08:06:54.729Z,210.40
2024-03-04T08:08:58.805Z,166.23
2024-03-04T08:11:01.601Z,163.60
2024-03-04T08:13:04.891Z,142.20
2024-03-04T08:15:08.877Z,60.70
2024-03-04T08:17:12.265Z,132.50
2024-03-04T08:19:15.116Z,114.00
2024-03-04T08:21:17.927Z,130.17
2024-03-04T08:23:19.763Z,76.00
2024-03-04T08:25:23.905Z,71.67
2024-03-04T08:27:26.773Z,55.27
2024-03-04T08:29:29.921Z,58.40
2024-03-04T08:31:33.804Z,45.57
2024-03-04T08:33:36.702Z,65.60
2024-03-04T08:35:39.507Z,62.03
2024-03-04T08:37:43.498Z,78.07
2024-03-04T08:39:48.466Z,55.77
2024-03-04T08:41:52.617Z,65.30
2024-03-04T08:43:55.555Z,74.73
2024-03-04T08:45:58.338Z,118.30
2024-03-04T08:48:01.151Z,123.63
2024-03-04T08:50:04.538Z,73.13
2024-03-04T08:52:07.753Z,153.47
2024-03-04T08:54:11.844Z,121.83
2024-03-04T08:56:15.051Z,102.03
2024-03-04T08:58:19.176Z,227.00
2024-03-04T09:00:21.392Z,207.33
2024-03-04T09:02:24.485Z,200.30
2024-03-04T09:04:27.316Z,146.93
2024-03-04T09:06:30.162Z,199.60
2024-03-04T09:08:32.971Z,163.63
2024-03-04T09:10:37.676Z,196.63
2024-03-04T09:12:42.071Z,201.77
2024-03-04T09:14:46.153Z,101.10
2024-03-04T09:16:49.019Z,264.63
2024-03-04T09:18:52.199Z,191.87
2024-03-04T09:20:54.939Z,141.30
2024-03-04T09:22:57.684Z,138.77
2024-03-04T09:25:00.469Z,106.03
2024-03-04T09:27:03.506Z,110.53
2024-03-04T09:29:06.855Z,82.67
2024-03-04T09:31:10.978Z,81.47
2024-03-04T09:33:13.823Z,77.70
2024-03-04T09:35:17.130Z,69.87
2024-03-04T09:37:19.964Z,66.33
2024-03-04T09:39:22.722Z,129.13
2024-03-04T09:41:26.485Z,83.67
2024-03-04T09:43:30.253Z,78.07
2024-03-04T09:45:33.038Z,83.07
2024-03-04T09:47:39.086Z,75.40
2024-03-04T09:49:41.000Z,85.83
2024-03-04T09:51:43.804Z,73.53
2024-03-04T09:53:46.584Z,69.07
2024-03-04T09:55:49.428Z,75.10
2024-03-04T09:57:52.275Z,69.70
2024-03-04T09:59:55.038Z,70.00
2024-03-04T10:01:59.837Z,69.50
2024-03-04T10:04:04.875Z,65.57
2024-03-04T10:06:07.765Z,67.00
2024-03-04T10:08:10.616Z,70.30
2024-03-04T10:10:14.479Z,69.20
2024-03-04T10:12:17.311Z,70.63
2024-03-04T10:14:20.071Z,74.50
2024-03-04T10:16:22.820Z,66.83
2024-03-04T10:18:25.646Z,70.80
2024-03-04T10:20:29.777Z,66.10
2024-03-04T10:22:35.735Z,80.17
2024-03-04T10:24:38.579Z,87.47
2024-03-04T10:26:41.943Z,73.07
2024-03-04T10:28:46.230Z,82.50
2024-03-04T10:30:48.995Z,85.40
2024-03-04T10:32:52.648Z,82.13
2024-03-04T10:35:03.068Z,75.43
2024-03-04T10:37:07.308Z,79.53
2024-03-04T10:39:15.068Z,88.20
2024-03-04T10:41:18.884Z,78.67
2024-03-04T10:43:22.731Z,72.70
2024-03-04T10:45:24.701Z,86.27
2024-03-04T10:47:27.509Z,94.90
2024-03-04T10:49:30.687Z,95.33
2024-03-04T10:51:33.606Z,93.63
2024-03-04T10:53:36.864Z,95.07
2024-03-04T10:55:39.665Z,93.60
2024-03-04T10:57:44.731Z,92.93
2024-03-04T10:59:48.155Z,105.97
2024-03-04T11:01:51.032Z,105.20
2024-03-04T11:03:58.626Z,103.67
2024-03-04T11:06:02.106Z,98.27
2024-03-04T11:08:06.506Z,99.17
2024-03-04T11:10:15.968Z,103.73
2024-03-04T11:12:18.823Z,106.00
2024-03-04T11:14:30.939Z,101.20
2024-03-04T11:16:41.787Z,100.83
2024-03-04T11:18:52.079Z,115.80
2024-03-04T11:20:54.847Z,100.90
2024-03-04T11:22:57.629Z,93.90
2024-03-04T11:24:59.438Z,104.43
2024-03-04T11:27:03.533Z,103.33
2024-03-04T11:29:06.493Z,109.53
2024-03-04T11:31:11.642Z,108.30
2024-03-04T11:33:39.900Z,105.03
2024-03-04T11:35:42.748Z,109.40
2024-03-04T11:37:52.487Z,119.20
2024-03-04T11:39:57.298Z,100.47
2024-03-04T11:42:00.357Z,105.10
2024-03-04T11:44:04.575Z,110.60
2024-03-04T11:46:11.665Z,114.03
2024-03-04T11:48:29.247Z,94.60
2024-03-04T11:50:44.659Z,102.63
2024-03-04T11:52:47.536Z,104.17
2024-03-04T11:54:50.644Z,102.00
2024-03-04T11:56:52.447Z,103.93
2024-03-04T11:58:57.910Z,103.67
2024-03-04T12:01:08.894Z,106.47
2024-03-04T12:03:20.216Z,102.13
2024-03-04T12:05:23.005Z,93.93
2024-03-04T12:07:25.581Z,90.97
2024-03-04T12:09:45.361Z,107.67
2024-03-04T12:11:51.114Z,104.03
2024-03-04T12:13:55.152Z,103.60
2024-03-04T12:15:59.581Z,102.90
2024-03-04T12:18:03.746Z,111.83
2024-03-04T12:20:08.534Z,108.90
2024-03-04T12:22:11.436Z,105.23
2024-03-04T12:24:17.762Z,106.70
2024-03-04T12:26:20.505Z,100.87
2024-03-04T12:28:23.316Z,106.40
2024-03-04T12:30:27.326Z,118.80
2024-03-04T12:32:29.186Z,111.33
2024-03-04T12:34:33.345Z,113.00
2024-03-04T12:36:36.090Z,111.43
2024-03-04T12:38:39.538Z,113.97
2024-03-04T12:40:42.298Z,111.60
2024-03-04T12:42:45.072Z,119.83
2024-03-04T12:44:47.836Z,118.33
2024-03-04T12:46:50.892Z,116.90
2024-03-04T12:48:53.996Z,116.70
2024-03-04T12:50:58.087Z,102.17
2024-03-04T12:53:00.901Z,120.90
2024-03-04T12:55:03.767Z,168.97
2024-03-04T12:57:06.670Z,107.83
2024-03-04T12:59:09.446Z,116.90
2024-03-04T13:01:16.053Z,118.93
2024-03-04T13:03:18.907Z,104.57
2024-03-04T13:05:21.792Z,101.00
2024-03-04T13:07:25.928Z,118.20
2024-03-04T13:09:28.682Z,115.03
2024-03-04T13:11:30.483Z,107.13
2024-03-04T13:13:33.290Z,109.20
2024-03-04T13:15:40.936Z,115.93
2024-03-04T13:17:44.488Z,122.13
2024-03-04T13:19:46.483Z,117.73
2024-03-04T13:21:49.289Z,104.37
2024-03-04T13:23:53.418Z,110.83
2024-03-04T13:25:56.319Z,104.57
2024-03-04T13:27:59.090Z,102.20
2024-03-04T13:30:03.426Z,99.53
2024-03-04T13:32:06.511Z,97.67
2024-03-04T13:34:09.493Z,107.80
2024-03-04T13:36:12.288Z,112.23
2024-03-04T13:38:15.127Z,104.73
2024-03-04T13:40:19.262Z,98.47
2024-03-04T13:42:22.390Z,92.17
2024-03-04T13:44:25.185Z,94.47
2024-03-04T13:46:29.314Z,98.03
2024-03-04T13:48:32.170Z,102.17
2024-03-04T13:50:34.978Z,102.23
2024-03-04T13:52:37.118Z,111.60
2024-03-04T13:54:39.911Z,102.40
2024-03-04T13:56:43.975Z,96.03
2024-03-04T13:58:46.894Z,94.30
2024-03-04T14:00:49.960Z,94.50
2024-03-04T14:02:52.746Z,93.73
2024-03-04T14:04:55.522Z,94.97
2024-03-04T14:06:59.533Z,87.67
2024-03-04T14:09:02.557Z,87.60
2024-03-04T14:11:06.086Z,83.53
2024-03-04T14:13:14.603Z,90.63
2024-03-04T14:15:19.154Z,118.67
2024-03-04T14:17:22.048Z,101.77
2024-03-04T14:19:24.858Z,89.73
2024-03-04T14:21:27.639Z,86.90
2024-03-04T14:23:35.316Z,97.43
2024-03-04T14:25:40.904Z,79.67
2024-03-04T14:27:42.797Z,85.13
2024-03-04T14:29:47.490Z,87.93
2024-03-04T14:31:49.517Z,90.67
2024-03-04T14:33:53.827Z,92.83
2024-03-04T14:35:55.643Z,86.10
2024-03-04T14:37:58.369Z,89.63
2024-03-04T14:40:01.167Z,108.73
2024-03-04T14:42:04.840Z,94.30
2024-03-04T14:44:08.221Z,106.23
2024-03-04T14:46:12.400Z,93.40
2024-03-04T14:48:15.248Z,95.95
2024-03-04T14:50:18.487Z,124.30
2024-03-04T14:52:22.002Z,85.50
2024-03-04T14:54:24.827Z,113.80
2024-03-04T14:56:29.842Z,94.13
2024-03-04T14:58:32.724Z,117.50
2024-03-04T15:00:36.380Z,103.10
2024-03-04T15:02:41.167Z,103.17
2024-03-04T15:04:44.065Z,95.90
2024-03-04T15:06:46.825Z,106.50
2024-03-04T15:08:51.507Z,180.40
2024-03-04T15:10:57.033Z,112.87
2024-03-04T15:13:01.253Z,110.33
2024-03-04T15:15:06.492Z,98.50
2024-03-04T15:17:10.637Z,107.03
2024-03-04T15:19:15.170Z,102.17
2024-03-04T15:21:18.047Z,404.13
2024-03-04T15:23:20.825Z,110.30
2024-03-04T15:25:22.640Z,110.93
2024-03-04T15:27:25.441Z,110.33
2024-03-04T15:29:28.244Z,105.43
2024-03-04T15:31:31.707Z,100.97
2024-03-04T15:33:34.542Z,106.80
2024-03-04T15:35:38.838Z,99.33
2024-03-04T15:37:43.375Z,97.50
2024-03-04T15:39:46.137Z,100.73
2024-03-04T15:41:47.961Z,103.03
2024-03-04T15:43:53.489Z,103.97
2024-03-04T15:45:56.331Z,103.47
2024-03-04T15:47:59.132Z,99.40
2024-03-04T15:50:01.995Z,97.57
2024-03-04T15:52:07.101Z,101.40
2024-03-04T15:54:08.925Z,87.10
2024-03-04T15:56:11.686Z,100.80
2024-03-04T15:58:14.545Z,99.40
2024-03-04T16:00:18.057Z,92.07
2024-03-04T16:02:21.053Z,96.87
2024-03-04T16:04:23.865Z,96.60
2024-03-04T16:06:30.754Z,95.30
2024-03-04T16:08:34.850Z,95.53
2024-03-04T16:10:38.251Z,103.83
2024-03-04T16:12:41.151Z,99.57
2024-03-04T16:14:42.990Z,99.90
2024-03-04T16:16:45.775Z,100.27
2024-03-04T16:18:47.619Z,108.43
2024-03-04T16:20:50.380Z,106.67
2024-03-04T16:22:53.204Z,110.83
2024-03-04T16:24:57.377Z,112.30
2024-03-04T16:27:00.121Z,109.17
2024-03-04T16:29:02.860Z,93.37
2024-03-04T16:31:07.713Z,114.47
2024-03-04T16:33:10.558Z,103.90
2024-03-04T16:35:13.369Z,107.10
2024-03-04T16:37:17.036Z,101.47
2024-03-04T16:39:19.970Z,100.30
2024-03-04T16:41:24.248Z,113.37
2024-03-04T16:43:27.188Z,101.40
2024-03-04T16:45:31.327Z,108.27
2024-03-04T16:47:34.562Z,108.90
2024-03-04T16:49:37.320Z,107.97
2024-03-04T16:51:40.267Z,111.13
2024-03-04T16:53:43.009Z,108.83
2024-03-04T16:55:46.094Z,97.93
2024-03-04T16:57:50.541Z,109.83
2024-03-04T16:59:53.290Z,110.53
2024-03-04T17:01:56.164Z,105.50
2024-03-04T17:03:59.448Z,99.90
2024-03-04T17:06:02.345Z,108.30
2024-03-04T17:08:06.648Z,118.93
2024-03-04T17:10:12.545Z,96.50
2024-03-04T17:12:15.387Z,117.23
2024-03-04T17:14:19.729Z,111.60
2024-03-04T17:16:21.964Z,106.33
2024-03-04T17:18:24.782Z,109.13
2024-03-04T17:20:26.561Z,113.40
2024-03-04T17:22:29.334Z,108.23
2024-03-04T17:24:32.167Z,119.03
2024-03-04T17:26:34.907Z,121.93
2024-03-04T17:28:38.162Z,121.43
2024-03-04T17:30:41.310Z,115.43
2024-03-04T17:32:44.083Z,104.57
2024-03-04T17:34:46.986Z,113.93
2024-03-04T17:36:49.779Z,105.13
2024-03-04T17:38:53.498Z,112.57
2024-03-04T17:40:57.588Z,108.87
2024-03-04T17:43:00.397Z,112.80
2024-03-04T17:45:02.217Z,111.83
2024-03-04T17:47:07.012Z,108.00
2024-03-04T17:49:09.808Z,101.40
2024-03-04T17:51:14.736Z,109.87
2024-03-04T17:53:17.750Z,106.17
2024-03-04T17:55:20.553Z,110.87
2024-03-04T17:57:23.318Z,110.47
2024-03-04T17:59:26.088Z,113.30
2024-03-04T18:01:29.089Z,115.90
2024-03-04T18:03:32.276Z,102.83
2024-03-04T18:05:35.015Z,103.10
2024-03-04T18:07:39.556Z,112.47
2024-03-04T18:09:43.280Z,114.47
2024-03-04T18:11:46.055Z,106.93
2024-03-04T18:13:48.912Z,118.13
2024-03-04T18:15:52.903Z,108.20
2024-03-04T18:17:56.391Z,115.50
2024-03-04T18:20:00.697Z,107.57
2024-03-04T18:22:04.374Z,108.57
2024-03-04T18:24:07.816Z,111.37
2024-03-04T18:26:10.572Z,118.73
2024-03-04T18:28:13.392Z,118.90
2024-03-04T18:30:17.519Z,112.27
2024-03-04T18:32:20.285Z,113.07
2024-03-04T18:34:23.862Z,115.63
2024-03-04T18:36:28.045Z,112.47
2024-03-04T18:38:30.784Z,118.13
2024-03-04T18:40:33.932Z,121.73
2024-03-04T18:42:35.729Z,120.53
2024-03-04T18:44:38.593Z,110.57
2024-03-04T18:46:44.363Z,116.47
2024-03-04T18:48:46.238Z,122.53
2024-03-04T18:50:48.985Z,120.97
2024-03-04T18:52:53.953Z,110.67
2024-03-04T18:54:57.487Z,112.10
2024-03-04T18:57:00.230Z,125.07
2024-03-04T18:59:03.044Z,122.43
2024-03-04T19:01:05.863Z,121.60
2024-03-04T19:03:08.644Z,123.00
2024-03-04T19:05:12.737Z,133.77
2024-03-04T19:07:15.583Z,126.70
2024-03-04T19:09:21.674Z,125.13
2024-03-04T19:11:25.989Z,117.30
2024-03-04T19:13:29.827Z,128.03
2024-03-04T19:15:32.574Z,116.33
2024-03-04T19:17:35.454Z,110.67
2024-03-04T19:19:38.248Z,119.83
2024-03-04T19:21:40.993Z,122.60
2024-03-04T19:23:43.755Z,130.40
2024-03-04T19:25:47.954Z,145.37
2024-03-04T19:27:50.793Z,143.00
2024-03-04T19:29:53.580Z,135.67
2024-03-04T19:31:56.338Z,132.67
2024-03-04T19:33:59.438Z,144.93
2024-03-04T19:36:04.274Z,141.47
2024-03-04T19:38:07.017Z,127.10
2024-03-04T19:40:12.207Z,135.37
2024-03-04T19:42:16.437Z,142.90
2024-03-04T19:44:19.200Z,124.03
2024-03-04T19:46:23.441Z,137.93
2024-03-04T19:48:26.274Z,142.73
2024-03-04T19:50:29.291Z,129.50
2024-03-04T19:52:32.106Z,130.30
2024-03-04T19:54:35.008Z,139.83
2024-03-04T19:56:38.237Z,147.63
2024-03-04T19:58:45.493Z,148.33
2024-03-04T20:00:49.802Z,162.17
2024-03-04T20:02:52.700Z,133.17
2024-03-04T20:04:54.581Z,152.50
2024-03-04T20:06:59.171Z,146.47
2024-03-04T20:09:03.479Z,155.17
2024-03-04T20:11:07.625Z,146.03
2024-03-04T20:13:10.561Z,143.77
2024-03-04T20:15:14.738Z,150.90
2024-03-04T20:17:16.541Z,135.90
2024-03-04T20:19:20.293Z,131.87
2024-03-04T20:21:23.051Z,144.30
2024-03-04T20:23:24.925Z,147.03
2024-03-04T20:25:27.713Z,153.07
2024-03-04T20:27:30.488Z,145.20
2024-03-04T20:29:33.233Z,144.40
2024-03-04T20:31:37.874Z,163.73
2024-03-04T20:33:41.413Z,162.03
2024-03-04T20:35:45.357Z,169.23
2024-03-04T20:37:48.184Z,175.90
2024-03-04T20:39:50.965Z,158.13
2024-03-04T20:41:53.722Z,148.37
2024-03-04T20:43:56.500Z,154.53
2024-03-04T20:45:59.399Z,149.67
2024-03-04T20:48:03.715Z,154.07
2024-03-04T20:50:07.723Z,143.67
2024-03-04T20:52:10.602Z,147.13
2024-03-04T20:54:13.385Z,152.40
2024-03-04T20:56:16.673Z,140.77
2024-03-04T20:58:19.592Z,156.87
2024-03-04T21:00:22.553Z,156.93
2024-03-04T21:02:25.351Z,155.07
2024-03-04T21:04:28.520Z,152.90
2024-03-04T21:06:31.284Z,153.20
2024-03-04T21:08:34.017Z,158.97
2024-03-04T21:10:36.770Z,159.83
2024-03-04T21:12:38.678Z,155.43
2024-03-04T21:14:41.424Z,156.27
2024-03-04T21:16:44.201Z,150.03
2024-03-04T21:18:46.946Z,142.93
2024-03-04T21:20:51.018Z,142.90
2024-03-04T21:22:55.063Z,151.10
2024-03-04T21:24:57.918Z,153.47
2024-03-04T21:27:00.675Z,142.10
2024-03-04T21:29:03.428Z,161.53
2024-03-04T21:31:05.502Z,157.40
2024-03-04T21:33:08.306Z,160.17
2024-03-04T21:35:11.839Z,161.70
2024-03-04T21:37:21.369Z,150.17
2024-03-04T21:39:30.391Z,174.13
2024-03-04T21:41:33.136Z,145.43
2024-03-04T21:43:35.945Z,156.50
2024-03-04T21:45:38.739Z,156.70
2024-03-04T21:47:41.577Z,174.83
2024-03-04T21:49:44.449Z,165.47
2024-03-04T21:51:47.479Z,165.13
2024-03-04T21:53:51.608Z,179.70
2024-03-04T21:55:54.461Z,163.27
2024-03-04T21:57:59.229Z,197.93
2024-03-04T22:00:01.086Z,177.80
2024-03-04T22:02:05.634Z,205.57
2024-03-04T22:04:08.474Z,197.83
2024-03-04T22:06:19.561Z,200.67
2024-03-04T22:08:23.313Z,192.97
2024-03-04T22:10:27.751Z,191.70
2024-03-04T22:12:30.525Z,209.63
2024-03-04T22:14:32.303Z,210.23
2024-03-04T22:16:35.127Z,200.77
2024-03-04T22:18:37.969Z,209.53
2024-03-04T22:20:40.755Z,215.77
2024-03-04T22:22:43.586Z,225.43
2024-03-04T22:24:45.396Z,216.43
2024-03-04T22:26:50.165Z,235.70
2024-03-04T22:28:53.630Z,242.80
2024-03-04T22:30:56.979Z,238.83
2024-03-04T22:33:00.911Z,225.57
2024-03-04T22:35:04.033Z,241.83
2024-03-04T22:37:05.823Z,248.90
2024-03-04T22:39:10.505Z,234.93
2024-03-04T22:41:13.304Z,250.30
2024-03-04T22:43:19.483Z,222.37
2024-03-04T22:45:22.305Z,217.73
2024-03-04T22:47:25.102Z,219.03
2024-03-04T22:49:27.935Z,234.27
2024-03-04T22:51:29.909Z,241.67
2024-03-04T22:53:32.690Z,258.20
2024-03-04T22:55:35.496Z,275.93
2024-03-04T22:57:38.326Z,267.93
2024-03-04T22:59:42.761Z,249.83
2024-03-04T23:01:45.556Z,247.30
2024-03-04T23:03:48.399Z,247.10
2024-03-04T23:05:51.671Z,235.23
2024-03-04T23:07:54.958Z,246.07
2024-03-04T23:09:57.807Z,249.40
2024-03-04T23:11:59.620Z,239.87
2024-03-04T23:14:02.479Z,246.43
2024-03-04T23:16:09.980Z,253.83
2024-03-04T23:18:13.258Z,239.40
2024-03-04T23:20:15.233Z,266.23
2024-03-04T23:22:18.005Z,257.83
2024-03-04T23:24:20.754Z,272.33
2024-03-04T23:26:23.520Z,269.87
2024-03-04T23:28:26.322Z,237.23
2024-03-04T23:30:30.217Z,279.63
2024-03-04T23:32:35.364Z,272.03
2024-03-04T23:34:38.217Z,262.73
2024-03-04T23:36:40.090Z,261.90
2024-03-04T23:38:42.851Z,242.73
2024-03-04T23:40:45.636Z,249.33
2024-03-04T23:42:48.387Z,267.00
2024-03-04T23:44:50.218Z,252.10
2024-03-04T23:46:53.573Z,265.60
2024-03-04T23:48:57.716Z,277.57
2024-03-04T23:50:59.551Z,255.83
2024-03-04T23:53:02.454Z,241.73
2024-03-04T23:55:07.895Z,223.60
2024-03-04T23:57:10.673Z,218.10
2024-03-04T23:59:14.103Z,220.77
